Terminal Aerodrome Forecast
Issued by NWS Binghamton, NY

Home | Current Version | Previous Version | Text Only | Print | Product List | Glossary On
Versions: 1 2 3 4 5 6 7 8 9 10 11 12 13 14 15 16 17 18 19 20
103
FTUS41 KBGM 250534
TAFAVP
TAF
KAVP 250534Z 2506/2606 17011G20KT P6SM BKN040 WS020/19040KT
     FM251300 21008KT P6SM BKN030
     FM251700 18010G20KT P6SM BKN022
     FM251900 19011G25KT 2SM -SHRA BR BKN015
      TEMPO 2520/2522 2SM +SHRA BR OVC015
     FM252200 24011G20KT 6SM -SHRA OVC025
     FM260000 28010G18KT P6SM -RASN OVC045
     FM260500 28013G24KT P6SM -SN SCT050 OVC090=

USA.gov is the U.S. government's official web portal to all federal, state and local government web resources and services.